KNPA/NPA METAR and TAF weather

Enter ICAO airport designator
Station Type Date Time Source
KNPA METAR 2020/11/28 19:56 UTC NOAA

KNPA 281956Z 34003KT 10SM SCT026 SCT050 BKN150 OVC200 22/16 A3005 RMK AO2 SLP176 T2 SET T02170161 PNO $


Station Type Date Time Source
KNPA Decoded METAR 2020/11/28 19:56 UTC NOAA

Pensacola, Naval Air Station, FL, United States (KNPA) 30-21-22N 087-19-24W 10M
Nov 28, 2020 - 02:56 PM EST / 2020.11.28 1956 UTC
Wind: from the NNW (340 degrees) at 3 MPH (3 KT):0
Visibility: 10 mile(s):0
Sky conditions: overcast
Temperature: 71.1 F (21.7 C)
Dew Point: 61.0 F (16.1 C)
Relative Humidity: 70%
Pressure (altimeter): 30.05 in. Hg (1017 hPa)
ob: KNPA 281956Z 34003KT 10SM SCT026 SCT050 BKN150 OVC200 22/16 A3005 RMK AO2 SLP176 T2 SET T02170161 PNO
cycle: 20

Station Type Date Time Source
KNPA TAF 2020/11/25 15:48 UTC NOAA

TAF KNPA 2515/2615 18012G20KT 9999 VCSH SCT025 BKN040 QNH3004INS
TEMPO 2515/2517 SCT025 SCT070
FM260100 18010KT 9999 SCT025 BKN040 QNH3006INS
FM260800 20010KT 9999 VCSH BKN020 OVC040 QNH3002INS
TEMPO 2610/2613 4800 BR BKN008 AUTOMATED SENSOR METWATCH 2603 TIL 2712 LAST NO
AMDS AFT 2518 NEXT 3007 T27/2520Z T19/2612Z FN20033

Example: see airport list